sensor_id;sensor_type;location;lat;lon;timestamp;P1;durP1;ratioP1;P2;durP2;ratioP2
20896;SDS011;10608;42.600;23.398;2023-09-19T00:01:54;25.87;;;24.47;;
20896;SDS011;10608;42.600;23.398;2023-09-19T00:04:21;26.27;;;24.97;;
20896;SDS011;10608;42.600;23.398;2023-09-19T00:06:53;39.53;;;37.60;;
20896;SDS011;10608;42.600;23.398;2023-09-19T00:09:19;40.97;;;38.97;;
20896;SDS011;10608;42.600;23.398;2023-09-19T00:11:44;36.93;;;35.17;;
20896;SDS011;10608;42.600;23.398;2023-09-19T00:14:12;30.27;;;28.67;;
20896;SDS011;10608;42.600;23.398;2023-09-19T00:16:39;30.70;;;29.07;;
20896;SDS011;10608;42.600;23.398;2023-09-19T00:19:06;27.40;;;26.00;;
20896;SDS011;10608;42.600;23.398;2023-09-19T00:21:34;38.63;;;36.77;;
20896;SDS011;10608;42.600;23.398;2023-09-19T00:24:02;43.37;;;41.27;;
20896;SDS011;10608;42.600;23.398;2023-09-19T00:26:29;36.90;;;34.67;;
20896;SDS011;10608;42.600;23.398;2023-09-19T00:28:57;33.07;;;31.20;;
20896;SDS011;10608;42.600;23.398;2023-09-19T00:31:22;36.70;;;34.90;;
20896;SDS011;10608;42.600;23.398;2023-09-19T00:33:48;38.70;;;36.20;;
20896;SDS011;10608;42.600;23.398;2023-09-19T00:36:13;35.77;;;33.77;;
20896;SDS011;10608;42.600;23.398;2023-09-19T00:38:39;46.53;;;44.40;;
20896;SDS011;10608;42.600;23.398;2023-09-19T00:41:04;39.90;;;37.47;;
20896;SDS011;10608;42.600;23.398;2023-09-19T00:43:30;34.77;;;32.93;;
20896;SDS011;10608;42.600;23.398;2023-09-19T00:45:59;37.03;;;35.17;;
20896;SDS011;10608;42.600;23.398;2023-09-19T00:48:26;42.57;;;40.33;;
20896;SDS011;10608;42.600;23.398;2023-09-19T00:50:53;38.20;;;36.10;;
20896;SDS011;10608;42.600;23.398;2023-09-19T00:53:20;36.37;;;34.53;;
20896;SDS011;10608;42.600;23.398;2023-09-19T00:55:49;38.73;;;36.67;;
20896;SDS011;10608;42.600;23.398;2023-09-19T00:58:16;40.10;;;38.20;;
20896;SDS011;10608;42.600;23.398;2023-09-19T01:00:43;37.43;;;35.57;;
20896;SDS011;10608;42.600;23.398;2023-09-19T01:03:10;39.50;;;37.50;;
20896;SDS011;10608;42.600;23.398;2023-09-19T01:05:36;34.80;;;33.10;;
20896;SDS011;10608;42.600;23.398;2023-09-19T01:08:01;33.90;;;31.77;;
20896;SDS011;10608;42.600;23.398;2023-09-19T01:10:27;37.57;;;35.30;;
20896;SDS011;10608;42.600;23.398;2023-09-19T01:15:59;31.73;;;29.90;;
20896;SDS011;10608;42.600;23.398;2023-09-19T01:24:44;78.37;;;74.03;;
20896;SDS011;10608;42.600;23.398;2023-09-19T01:30:17;47.47;;;45.17;;
20896;SDS011;10608;42.600;23.398;2023-09-19T01:32:47;43.37;;;40.97;;
20896;SDS011;10608;42.600;23.398;2023-09-19T01:35:17;39.93;;;37.90;;
20896;SDS011;10608;42.600;23.398;2023-09-19T01:37:43;45.30;;;43.17;;
20896;SDS011;10608;42.600;23.398;2023-09-19T01:40:10;44.20;;;41.80;;
20896;SDS011;10608;42.600;23.398;2023-09-19T01:48:20;42.23;;;40.10;;
20896;SDS011;10608;42.600;23.398;2023-09-19T01:51:18;39.97;;;37.93;;
20896;SDS011;10608;42.600;23.398;2023-09-19T01:54:07;45.33;;;43.13;;
20896;SDS011;10608;42.600;23.398;2023-09-19T01:59:07;49.67;;;46.97;;
20896;SDS011;10608;42.600;23.398;2023-09-19T02:01:38;47.53;;;45.20;;
20896;SDS011;10608;42.600;23.398;2023-09-19T02:04:05;45.50;;;43.20;;
20896;SDS011;10608;42.600;23.398;2023-09-19T02:06:32;44.30;;;42.13;;
20896;SDS011;10608;42.600;23.398;2023-09-19T02:08:59;48.83;;;46.40;;
20896;SDS011;10608;42.600;23.398;2023-09-19T02:11:24;46.73;;;44.47;;
20896;SDS011;10608;42.600;23.398;2023-09-19T02:13:50;48.10;;;45.67;;
20896;SDS011;10608;42.600;23.398;2023-09-19T02:16:19;56.33;;;53.53;;
20896;SDS011;10608;42.600;23.398;2023-09-19T02:18:46;54.87;;;51.90;;
20896;SDS011;10608;42.600;23.398;2023-09-19T02:21:14;49.47;;;47.13;;
20896;SDS011;10608;42.600;23.398;2023-09-19T02:23:39;52.43;;;49.80;;
20896;SDS011;10608;42.600;23.398;2023-09-19T02:26:06;50.60;;;47.97;;
20896;SDS011;10608;42.600;23.398;2023-09-19T02:28:31;45.70;;;43.47;;
20896;SDS011;10608;42.600;23.398;2023-09-19T02:30:57;47.90;;;45.40;;
20896;SDS011;10608;42.600;23.398;2023-09-19T02:33:24;46.30;;;44.10;;
20896;SDS011;10608;42.600;23.398;2023-09-19T02:35:49;52.47;;;49.87;;
20896;SDS011;10608;42.600;23.398;2023-09-19T02:38:15;43.63;;;41.13;;
20896;SDS011;10608;42.600;23.398;2023-09-19T02:40:45;51.63;;;49.23;;
20896;SDS011;10608;42.600;23.398;2023-09-19T02:43:11;46.80;;;44.53;;
20896;SDS011;10608;42.600;23.398;2023-09-19T02:45:37;47.50;;;45.17;;
20896;SDS011;10608;42.600;23.398;2023-09-19T02:48:02;41.23;;;39.17;;
20896;SDS011;10608;42.600;23.398;2023-09-19T02:50:29;36.93;;;34.53;;
20896;SDS011;10608;42.600;23.398;2023-09-19T02:52:54;38.67;;;36.70;;
20896;SDS011;10608;42.600;23.398;2023-09-19T02:55:20;38.20;;;36.30;;
20896;SDS011;10608;42.600;23.398;2023-09-19T02:57:50;45.20;;;42.93;;
20896;SDS011;10608;42.600;23.398;2023-09-19T03:00:18;50.43;;;47.83;;
20896;SDS011;10608;42.600;23.398;2023-09-19T03:02:53;47.83;;;45.40;;
20896;SDS011;10608;42.600;23.398;2023-09-19T03:05:20;44.17;;;41.87;;
20896;SDS011;10608;42.600;23.398;2023-09-19T03:07:46;48.53;;;46.13;;
20896;SDS011;10608;42.600;23.398;2023-09-19T03:10:15;44.33;;;42.13;;
20896;SDS011;10608;42.600;23.398;2023-09-19T03:12:45;44.87;;;42.67;;
20896;SDS011;10608;42.600;23.398;2023-09-19T03:15:11;40.07;;;37.73;;
20896;SDS011;10608;42.600;23.398;2023-09-19T03:17:36;43.40;;;41.17;;
20896;SDS011;10608;42.600;23.398;2023-09-19T03:20:02;40.97;;;38.90;;
20896;SDS011;10608;42.600;23.398;2023-09-19T03:22:34;34.77;;;32.90;;
20896;SDS011;10608;42.600;23.398;2023-09-19T03:24:59;37.50;;;35.40;;
20896;SDS011;10608;42.600;23.398;2023-09-19T03:27:25;37.30;;;34.97;;
20896;SDS011;10608;42.600;23.398;2023-09-19T03:29:52;46.93;;;44.37;;
20896;SDS011;10608;42.600;23.398;2023-09-19T03:32:18;40.60;;;38.53;;
20896;SDS011;10608;42.600;23.398;2023-09-19T03:34:44;46.63;;;44.23;;
20896;SDS011;10608;42.600;23.398;2023-09-19T03:37:09;50.70;;;47.93;;
20896;SDS011;10608;42.600;23.398;2023-09-19T03:39:35;49.73;;;47.10;;
20896;SDS011;10608;42.600;23.398;2023-09-19T03:42:01;53.80;;;51.10;;
20896;SDS011;10608;42.600;23.398;2023-09-19T03:44:32;58.77;;;55.60;;
20896;SDS011;10608;42.600;23.398;2023-09-19T03:46:57;52.20;;;49.67;;
20896;SDS011;10608;42.600;23.398;2023-09-19T03:49:23;55.73;;;52.63;;
20896;SDS011;10608;42.600;23.398;2023-09-19T03:51:48;45.40;;;43.00;;
20896;SDS011;10608;42.600;23.398;2023-09-19T03:54:13;51.40;;;48.60;;
20896;SDS011;10608;42.600;23.398;2023-09-19T03:56:39;37.97;;;35.77;;
20896;SDS011;10608;42.600;23.398;2023-09-19T03:59:04;39.13;;;37.23;;
20896;SDS011;10608;42.600;23.398;2023-09-19T04:01:30;44.83;;;42.60;;
20896;SDS011;10608;42.600;23.398;2023-09-19T04:03:57;39.50;;;37.60;;
20896;SDS011;10608;42.600;23.398;2023-09-19T04:06:23;38.73;;;36.83;;
20896;SDS011;10608;42.600;23.398;2023-09-19T04:08:48;43.53;;;41.33;;
20896;SDS011;10608;42.600;23.398;2023-09-19T04:11:14;41.60;;;39.50;;
20896;SDS011;10608;42.600;23.398;2023-09-19T04:13:39;40.63;;;38.43;;
20896;SDS011;10608;42.600;23.398;2023-09-19T04:16:05;35.00;;;33.27;;
20896;SDS011;10608;42.600;23.398;2023-09-19T04:18:32;32.30;;;30.60;;
20896;SDS011;10608;42.600;23.398;2023-09-19T04:20:58;36.67;;;34.37;;
20896;SDS011;10608;42.600;23.398;2023-09-19T04:23:27;38.20;;;36.20;;
20896;SDS011;10608;42.600;23.398;2023-09-19T04:25:53;39.90;;;37.83;;
20896;SDS011;10608;42.600;23.398;2023-09-19T04:28:18;35.33;;;33.33;;
20896;SDS011;10608;42.600;23.398;2023-09-19T04:30:44;34.57;;;32.67;;
20896;SDS011;10608;42.600;23.398;2023-09-19T04:33:09;38.07;;;35.17;;
20896;SDS011;10608;42.600;23.398;2023-09-19T04:35:34;37.93;;;35.77;;
20896;SDS011;10608;42.600;23.398;2023-09-19T04:38:00;49.43;;;46.93;;
20896;SDS011;10608;42.600;23.398;2023-09-19T04:40:26;54.20;;;51.50;;
20896;SDS011;10608;42.600;23.398;2023-09-19T04:42:54;54.10;;;51.50;;
20896;SDS011;10608;42.600;23.398;2023-09-19T04:45:23;51.00;;;48.50;;
20896;SDS011;10608;42.600;23.398;2023-09-19T04:47:48;48.73;;;46.23;;
20896;SDS011;10608;42.600;23.398;2023-09-19T04:50:14;36.43;;;34.07;;
20896;SDS011;10608;42.600;23.398;2023-09-19T04:52:42;35.13;;;33.13;;
20896;SDS011;10608;42.600;23.398;2023-09-19T04:55:13;34.40;;;32.60;;
20896;SDS011;10608;42.600;23.398;2023-09-19T04:57:42;32.17;;;30.60;;
20896;SDS011;10608;42.600;23.398;2023-09-19T05:00:13;25.67;;;24.37;;
20896;SDS011;10608;42.600;23.398;2023-09-19T05:02:40;34.10;;;32.27;;
20896;SDS011;10608;42.600;23.398;2023-09-19T05:05:07;37.77;;;35.70;;
20896;SDS011;10608;42.600;23.398;2023-09-19T05:07:34;38.00;;;36.13;;
20896;SDS011;10608;42.600;23.398;2023-09-19T05:09:59;32.37;;;30.60;;
20896;SDS011;10608;42.600;23.398;2023-09-19T05:12:28;29.10;;;27.50;;
20896;SDS011;10608;42.600;23.398;2023-09-19T05:14:53;24.07;;;22.37;;
20896;SDS011;10608;42.600;23.398;2023-09-19T05:17:18;29.17;;;27.30;;
20896;SDS011;10608;42.600;23.398;2023-09-19T05:19:44;24.90;;;23.00;;
20896;SDS011;10608;42.600;23.398;2023-09-19T05:22:11;36.60;;;34.83;;
20896;SDS011;10608;42.600;23.398;2023-09-19T05:24:37;28.80;;;27.27;;
20896;SDS011;10608;42.600;23.398;2023-09-19T05:27:04;22.43;;;21.20;;
20896;SDS011;10608;42.600;23.398;2023-09-19T05:29:29;18.43;;;17.37;;
20896;SDS011;10608;42.600;23.398;2023-09-19T05:31:55;17.00;;;16.00;;
20896;SDS011;10608;42.600;23.398;2023-09-19T05:34:20;21.53;;;20.20;;
20896;SDS011;10608;42.600;23.398;2023-09-19T05:36:46;32.57;;;30.87;;
20896;SDS011;10608;42.600;23.398;2023-09-19T05:39:13;26.33;;;25.03;;
20896;SDS011;10608;42.600;23.398;2023-09-19T05:41:39;25.37;;;23.73;;
20896;SDS011;10608;42.600;23.398;2023-09-19T05:44:05;19.67;;;18.47;;
20896;SDS011;10608;42.600;23.398;2023-09-19T05:46:32;16.40;;;15.40;;
20896;SDS011;10608;42.600;23.398;2023-09-19T05:48:57;21.30;;;20.10;;
20896;SDS011;10608;42.600;23.398;2023-09-19T05:51:23;18.70;;;17.70;;
20896;SDS011;10608;42.600;23.398;2023-09-19T05:53:48;18.43;;;17.43;;
20896;SDS011;10608;42.600;23.398;2023-09-19T05:56:14;16.50;;;15.50;;
20896;SDS011;10608;42.600;23.398;2023-09-19T05:58:40;17.20;;;16.30;;
20896;SDS011;10608;42.600;23.398;2023-09-19T06:01:09;16.53;;;15.43;;
20896;SDS011;10608;42.600;23.398;2023-09-19T06:03:35;16.53;;;15.33;;
20896;SDS011;10608;42.600;23.398;2023-09-19T06:06:01;16.20;;;15.07;;
20896;SDS011;10608;42.600;23.398;2023-09-19T06:08:27;16.87;;;15.97;;
20896;SDS011;10608;42.600;23.398;2023-09-19T06:10:53;16.33;;;15.33;;
20896;SDS011;10608;42.600;23.398;2023-09-19T06:13:19;20.20;;;18.47;;
20896;SDS011;10608;42.600;23.398;2023-09-19T06:15:45;16.93;;;15.90;;
20896;SDS011;10608;42.600;23.398;2023-09-19T06:18:12;15.53;;;14.50;;
20896;SDS011;10608;42.600;23.398;2023-09-19T06:20:45;22.50;;;21.33;;
20896;SDS011;10608;42.600;23.398;2023-09-19T06:23:15;37.93;;;36.10;;
20896;SDS011;10608;42.600;23.398;2023-09-19T06:25:42;36.40;;;34.63;;
20896;SDS011;10608;42.600;23.398;2023-09-19T06:28:08;36.63;;;34.93;;
20896;SDS011;10608;42.600;23.398;2023-09-19T06:30:37;23.40;;;21.93;;
20896;SDS011;10608;42.600;23.398;2023-09-19T06:33:06;19.00;;;17.60;;
20896;SDS011;10608;42.600;23.398;2023-09-19T06:35:34;18.13;;;16.93;;
20896;SDS011;10608;42.600;23.398;2023-09-19T06:38:03;18.63;;;17.60;;
20896;SDS011;10608;42.600;23.398;2023-09-19T06:40:29;14.60;;;13.73;;
20896;SDS011;10608;42.600;23.398;2023-09-19T06:42:56;13.70;;;12.97;;
20896;SDS011;10608;42.600;23.398;2023-09-19T06:45:21;14.33;;;13.33;;
20896;SDS011;10608;42.600;23.398;2023-09-19T06:47:48;17.73;;;16.53;;
20896;SDS011;10608;42.600;23.398;2023-09-19T06:50:15;14.73;;;13.93;;
20896;SDS011;10608;42.600;23.398;2023-09-19T06:52:47;12.80;;;11.80;;
20896;SDS011;10608;42.600;23.398;2023-09-19T06:55:15;12.37;;;11.57;;
20896;SDS011;10608;42.600;23.398;2023-09-19T06:57:41;12.47;;;11.17;;
20896;SDS011;10608;42.600;23.398;2023-09-19T07:00:08;15.47;;;14.27;;
20896;SDS011;10608;42.600;23.398;2023-09-19T07:02:41;12.30;;;11.60;;
20896;SDS011;10608;42.600;23.398;2023-09-19T07:05:07;14.07;;;12.77;;
20896;SDS011;10608;42.600;23.398;2023-09-19T07:07:32;14.63;;;13.73;;
20896;SDS011;10608;42.600;23.398;2023-09-19T07:10:00;14.43;;;13.60;;
20896;SDS011;10608;42.600;23.398;2023-09-19T07:12:30;17.70;;;16.60;;
20896;SDS011;10608;42.600;23.398;2023-09-19T07:14:57;14.73;;;13.63;;
20896;SDS011;10608;42.600;23.398;2023-09-19T07:17:23;24.00;;;22.47;;
20896;SDS011;10608;42.600;23.398;2023-09-19T07:19:49;23.20;;;21.97;;
20896;SDS011;10608;42.600;23.398;2023-09-19T07:22:15;18.70;;;17.60;;
20896;SDS011;10608;42.600;23.398;2023-09-19T07:24:40;24.37;;;22.97;;
20896;SDS011;10608;42.600;23.398;2023-09-19T07:27:06;28.37;;;26.67;;
20896;SDS011;10608;42.600;23.398;2023-09-19T07:29:31;21.40;;;19.93;;
20896;SDS011;10608;42.600;23.398;2023-09-19T07:31:57;22.77;;;21.10;;
20896;SDS011;10608;42.600;23.398;2023-09-19T07:34:22;24.70;;;23.43;;
20896;SDS011;10608;42.600;23.398;2023-09-19T07:36:49;24.10;;;22.80;;
20896;SDS011;10608;42.600;23.398;2023-09-19T07:39:15;20.40;;;18.50;;
20896;SDS011;10608;42.600;23.398;2023-09-19T07:41:40;22.50;;;21.17;;
20896;SDS011;10608;42.600;23.398;2023-09-19T07:44:06;26.53;;;24.60;;
20896;SDS011;10608;42.600;23.398;2023-09-19T07:46:32;25.63;;;24.00;;
20896;SDS011;10608;42.600;23.398;2023-09-19T07:48:58;24.53;;;23.03;;
20896;SDS011;10608;42.600;23.398;2023-09-19T07:51:23;25.27;;;23.87;;
20896;SDS011;10608;42.600;23.398;2023-09-19T07:53:49;21.00;;;19.57;;
20896;SDS011;10608;42.600;23.398;2023-09-19T07:56:14;21.73;;;20.13;;
20896;SDS011;10608;42.600;23.398;2023-09-19T07:58:40;17.67;;;16.57;;
20896;SDS011;10608;42.600;23.398;2023-09-19T08:01:09;17.50;;;16.53;;
20896;SDS011;10608;42.600;23.398;2023-09-19T08:03:35;20.37;;;18.60;;
20896;SDS011;10608;42.600;23.398;2023-09-19T08:06:09;21.53;;;20.30;;
20896;SDS011;10608;42.600;23.398;2023-09-19T08:08:35;24.97;;;23.40;;
20896;SDS011;10608;42.600;23.398;2023-09-19T08:11:02;23.67;;;22.27;;
20896;SDS011;10608;42.600;23.398;2023-09-19T08:13:35;32.07;;;30.13;;
20896;SDS011;10608;42.600;23.398;2023-09-19T08:16:00;17.80;;;16.90;;
20896;SDS011;10608;42.600;23.398;2023-09-19T08:18:26;14.37;;;13.57;;
20896;SDS011;10608;42.600;23.398;2023-09-19T08:20:55;16.03;;;14.90;;
20896;SDS011;10608;42.600;23.398;2023-09-19T08:23:20;16.63;;;15.63;;
20896;SDS011;10608;42.600;23.398;2023-09-19T08:25:46;15.70;;;14.57;;
20896;SDS011;10608;42.600;23.398;2023-09-19T08:28:12;14.67;;;13.57;;
20896;SDS011;10608;42.600;23.398;2023-09-19T08:30:42;16.47;;;15.23;;
20896;SDS011;10608;42.600;23.398;2023-09-19T08:33:08;14.83;;;13.83;;
20896;SDS011;10608;42.600;23.398;2023-09-19T08:35:33;15.17;;;14.23;;
20896;SDS011;10608;42.600;23.398;2023-09-19T08:37:58;14.97;;;14.00;;
20896;SDS011;10608;42.600;23.398;2023-09-19T08:40:29;13.80;;;13.00;;
20896;SDS011;10608;42.600;23.398;2023-09-19T08:42:58;16.37;;;15.47;;
20896;SDS011;10608;42.600;23.398;2023-09-19T08:45:25;15.80;;;14.67;;
20896;SDS011;10608;42.600;23.398;2023-09-19T08:51:00;12.20;;;11.40;;
20896;SDS011;10608;42.600;23.398;2023-09-19T08:53:42;13.37;;;12.33;;
20896;SDS011;10608;42.600;23.398;2023-09-19T08:56:28;13.00;;;11.97;;
20896;SDS011;10608;42.600;23.398;2023-09-19T08:58:55;25.30;;;23.83;;
20896;SDS011;10608;42.600;23.398;2023-09-19T09:01:26;36.90;;;34.77;;
20896;SDS011;10608;42.600;23.398;2023-09-19T09:03:53;29.20;;;27.77;;
20896;SDS011;10608;42.600;23.398;2023-09-19T09:06:20;14.97;;;14.07;;
20896;SDS011;10608;42.600;23.398;2023-09-19T09:08:46;14.43;;;13.50;;
20896;SDS011;10608;42.600;23.398;2023-09-19T09:11:15;15.17;;;14.37;;
20896;SDS011;10608;42.600;23.398;2023-09-19T09:13:42;14.87;;;13.87;;
20896;SDS011;10608;42.600;23.398;2023-09-19T09:16:09;14.27;;;13.57;;
20896;SDS011;10608;42.600;23.398;2023-09-19T09:18:35;11.70;;;11.00;;
20896;SDS011;10608;42.600;23.398;2023-09-19T09:21:01;13.50;;;12.70;;
20896;SDS011;10608;42.600;23.398;2023-09-19T09:23:29;14.50;;;13.57;;
20896;SDS011;10608;42.600;23.398;2023-09-19T09:25:56;12.00;;;11.30;;
20896;SDS011;10608;42.600;23.398;2023-09-19T09:28:28;12.43;;;11.73;;
20896;SDS011;10608;42.600;23.398;2023-09-19T09:30:56;12.80;;;11.97;;
20896;SDS011;10608;42.600;23.398;2023-09-19T09:33:23;13.27;;;12.23;;
20896;SDS011;10608;42.600;23.398;2023-09-19T09:35:59;12.77;;;11.57;;
20896;SDS011;10608;42.600;23.398;2023-09-19T09:38:28;13.20;;;12.50;;
20896;SDS011;10608;42.600;23.398;2023-09-19T09:40:57;15.13;;;13.90;;
20896;SDS011;10608;42.600;23.398;2023-09-19T09:43:38;15.13;;;14.23;;
20896;SDS011;10608;42.600;23.398;2023-09-19T09:48:44;21.97;;;20.43;;
20896;SDS011;10608;42.600;23.398;2023-09-19T09:51:30;23.47;;;22.17;;
20896;SDS011;10608;42.600;23.398;2023-09-19T09:54:09;22.23;;;20.93;;
20896;SDS011;10608;42.600;23.398;2023-09-19T09:56:51;18.40;;;17.37;;
20896;SDS011;10608;42.600;23.398;2023-09-19T09:59:45;24.60;;;23.23;;
20896;SDS011;10608;42.600;23.398;2023-09-19T10:04:58;23.23;;;22.13;;
20896;SDS011;10608;42.600;23.398;2023-09-19T10:07:32;17.73;;;16.53;;
20896;SDS011;10608;42.600;23.398;2023-09-19T10:10:03;14.93;;;13.93;;
20896;SDS011;10608;42.600;23.398;2023-09-19T10:12:44;12.30;;;11.50;;
20896;SDS011;10608;42.600;23.398;2023-09-19T10:15:11;12.37;;;11.67;;
20896;SDS011;10608;42.600;23.398;2023-09-19T10:17:42;13.33;;;12.43;;
20896;SDS011;10608;42.600;23.398;2023-09-19T10:20:09;12.40;;;11.67;;
20896;SDS011;10608;42.600;23.398;2023-09-19T10:22:47;13.40;;;12.50;;
20896;SDS011;10608;42.600;23.398;2023-09-19T10:25:31;12.90;;;11.70;;
20896;SDS011;10608;42.600;23.398;2023-09-19T10:27:57;15.20;;;14.30;;
20896;SDS011;10608;42.600;23.398;2023-09-19T10:30:27;17.07;;;15.67;;
20896;SDS011;10608;42.600;23.398;2023-09-19T10:33:01;16.73;;;15.73;;
20896;SDS011;10608;42.600;23.398;2023-09-19T10:35:29;18.53;;;17.40;;
20896;SDS011;10608;42.600;23.398;2023-09-19T10:37:57;17.93;;;16.77;;
20896;SDS011;10608;42.600;23.398;2023-09-19T10:40:26;16.50;;;15.33;;
20896;SDS011;10608;42.600;23.398;2023-09-19T10:43:04;18.57;;;17.47;;
20896;SDS011;10608;42.600;23.398;2023-09-19T10:45:34;17.63;;;16.70;;
20896;SDS011;10608;42.600;23.398;2023-09-19T10:48:00;17.10;;;15.97;;
20896;SDS011;10608;42.600;23.398;2023-09-19T10:50:33;18.43;;;17.30;;
20896;SDS011;10608;42.600;23.398;2023-09-19T10:53:05;17.77;;;16.87;;
20896;SDS011;10608;42.600;23.398;2023-09-19T10:55:33;16.87;;;15.77;;
20896;SDS011;10608;42.600;23.398;2023-09-19T10:58:00;15.93;;;15.10;;
20896;SDS011;10608;42.600;23.398;2023-09-19T11:00:29;12.93;;;11.93;;
20896;SDS011;10608;42.600;23.398;2023-09-19T11:03:16;15.50;;;14.60;;
20896;SDS011;10608;42.600;23.398;2023-09-19T11:05:45;16.80;;;12.33;;
20896;SDS011;10608;42.600;23.398;2023-09-19T11:08:26;14.93;;;13.73;;
20896;SDS011;10608;42.600;23.398;2023-09-19T11:10:52;15.50;;;14.30;;
20896;SDS011;10608;42.600;23.398;2023-09-19T11:16:17;12.53;;;11.53;;
20896;SDS011;10608;42.600;23.398;2023-09-19T11:27:10;16.20;;;15.37;;
20896;SDS011;10608;42.600;23.398;2023-09-19T11:29:42;17.63;;;16.50;;
20896;SDS011;10608;42.600;23.398;2023-09-19T11:32:07;15.03;;;14.13;;
20896;SDS011;10608;42.600;23.398;2023-09-19T11:39:36;13.27;;;12.40;;
20896;SDS011;10608;42.600;23.398;2023-09-19T11:42:40;17.63;;;16.63;;
20896;SDS011;10608;42.600;23.398;2023-09-19T11:45:35;13.17;;;12.37;;
20896;SDS011;10608;42.600;23.398;2023-09-19T11:48:12;12.20;;;11.57;;
20896;SDS011;10608;42.600;23.398;2023-09-19T11:50:41;17.50;;;15.90;;
20896;SDS011;10608;42.600;23.398;2023-09-19T11:53:10;15.60;;;14.60;;
20896;SDS011;10608;42.600;23.398;2023-09-19T11:55:37;18.07;;;17.03;;
20896;SDS011;10608;42.600;23.398;2023-09-19T11:58:03;21.63;;;20.23;;
20896;SDS011;10608;42.600;23.398;2023-09-19T12:00:31;18.20;;;17.10;;
20896;SDS011;10608;42.600;23.398;2023-09-19T12:03:00;24.73;;;23.47;;
20896;SDS011;10608;42.600;23.398;2023-09-19T12:05:33;27.27;;;25.47;;
20896;SDS011;10608;42.600;23.398;2023-09-19T12:07:58;28.07;;;26.37;;
20896;SDS011;10608;42.600;23.398;2023-09-19T12:10:24;23.57;;;22.47;;
20896;SDS011;10608;42.600;23.398;2023-09-19T12:12:50;24.37;;;23.17;;
20896;SDS011;10608;42.600;23.398;2023-09-19T12:15:22;24.40;;;23.20;;
20896;SDS011;10608;42.600;23.398;2023-09-19T12:17:53;23.90;;;22.60;;
20896;SDS011;10608;42.600;23.398;2023-09-19T12:20:19;28.50;;;27.00;;
20896;SDS011;10608;42.600;23.398;2023-09-19T12:22:46;26.23;;;24.77;;
20896;SDS011;10608;42.600;23.398;2023-09-19T12:25:12;26.50;;;24.87;;
20896;SDS011;10608;42.600;23.398;2023-09-19T12:27:45;27.70;;;26.10;;
20896;SDS011;10608;42.600;23.398;2023-09-19T12:30:12;29.00;;;27.43;;
20896;SDS011;10608;42.600;23.398;2023-09-19T12:32:47;32.63;;;30.93;;
20896;SDS011;10608;42.600;23.398;2023-09-19T12:35:27;36.43;;;34.63;;
20896;SDS011;10608;42.600;23.398;2023-09-19T12:37:53;28.07;;;26.63;;
20896;SDS011;10608;42.600;23.398;2023-09-19T12:40:20;23.80;;;21.97;;
20896;SDS011;10608;42.600;23.398;2023-09-19T12:42:48;21.60;;;20.30;;
20896;SDS011;10608;42.600;23.398;2023-09-19T12:45:15;20.10;;;18.93;;
20896;SDS011;10608;42.600;23.398;2023-09-19T12:51:03;14.30;;;13.13;;
20896;SDS011;10608;42.600;23.398;2023-09-19T12:56:12;13.73;;;12.40;;
20896;SDS011;10608;42.600;23.398;2023-09-19T13:01:18;15.23;;;14.33;;
20896;SDS011;10608;42.600;23.398;2023-09-19T13:03:44;15.10;;;14.20;;
20896;SDS011;10608;42.600;23.398;2023-09-19T13:06:11;16.37;;;15.43;;
20896;SDS011;10608;42.600;23.398;2023-09-19T13:08:40;19.33;;;17.83;;
20896;SDS011;10608;42.600;23.398;2023-09-19T13:11:15;19.40;;;18.40;;
20896;SDS011;10608;42.600;23.398;2023-09-19T13:16:13;15.43;;;14.43;;
20896;SDS011;10608;42.600;23.398;2023-09-19T13:18:47;14.20;;;13.20;;
20896;SDS011;10608;42.600;23.398;2023-09-19T13:21:26;12.00;;;11.30;;
20896;SDS011;10608;42.600;23.398;2023-09-19T13:23:54;15.33;;;14.33;;
20896;SDS011;10608;42.600;23.398;2023-09-19T13:26:27;15.70;;;14.80;;
20896;SDS011;10608;42.600;23.398;2023-09-19T13:28:55;16.13;;;15.23;;
20896;SDS011;10608;42.600;23.398;2023-09-19T13:31:20;24.03;;;22.63;;
20896;SDS011;10608;42.600;23.398;2023-09-19T13:33:48;23.90;;;22.43;;
20896;SDS011;10608;42.600;23.398;2023-09-19T13:36:14;21.43;;;20.23;;
20896;SDS011;10608;42.600;23.398;2023-09-19T13:38:40;21.37;;;19.90;;
20896;SDS011;10608;42.600;23.398;2023-09-19T13:41:12;22.33;;;20.97;;
20896;SDS011;10608;42.600;23.398;2023-09-19T13:43:38;22.83;;;21.60;;
20896;SDS011;10608;42.600;23.398;2023-09-19T13:46:04;17.87;;;16.87;;
20896;SDS011;10608;42.600;23.398;2023-09-19T13:48:32;18.30;;;17.20;;
20896;SDS011;10608;42.600;23.398;2023-09-19T13:51:01;22.30;;;21.10;;
20896;SDS011;10608;42.600;23.398;2023-09-19T13:53:28;19.17;;;18.07;;
20896;SDS011;10608;42.600;23.398;2023-09-19T13:55:54;20.73;;;19.57;;
20896;SDS011;10608;42.600;23.398;2023-09-19T13:58:19;20.47;;;18.80;;
20896;SDS011;10608;42.600;23.398;2023-09-19T14:00:46;19.50;;;18.33;;
20896;SDS011;10608;42.600;23.398;2023-09-19T14:03:12;18.77;;;17.67;;
20896;SDS011;10608;42.600;23.398;2023-09-19T14:05:37;22.70;;;21.40;;
20896;SDS011;10608;42.600;23.398;2023-09-19T14:08:02;22.57;;;21.47;;
20896;SDS011;10608;42.600;23.398;2023-09-19T14:10:28;24.17;;;22.57;;
20896;SDS011;10608;42.600;23.398;2023-09-19T14:12:56;23.77;;;22.47;;
20896;SDS011;10608;42.600;23.398;2023-09-19T14:15:23;21.90;;;20.70;;
20896;SDS011;10608;42.600;23.398;2023-09-19T14:17:57;21.53;;;20.07;;
20896;SDS011;10608;42.600;23.398;2023-09-19T14:20:25;20.37;;;19.17;;
20896;SDS011;10608;42.600;23.398;2023-09-19T14:22:51;17.37;;;16.30;;
20896;SDS011;10608;42.600;23.398;2023-09-19T14:25:20;15.60;;;14.70;;
20896;SDS011;10608;42.600;23.398;2023-09-19T14:27:46;14.60;;;13.60;;
20896;SDS011;10608;42.600;23.398;2023-09-19T14:30:12;13.63;;;12.73;;
20896;SDS011;10608;42.600;23.398;2023-09-19T14:32:38;14.13;;;13.27;;
20896;SDS011;10608;42.600;23.398;2023-09-19T14:35:04;14.60;;;13.70;;
20896;SDS011;10608;42.600;23.398;2023-09-19T14:37:31;16.03;;;15.07;;
20896;SDS011;10608;42.600;23.398;2023-09-19T14:39:56;19.90;;;18.70;;
20896;SDS011;10608;42.600;23.398;2023-09-19T14:42:21;17.23;;;16.10;;
20896;SDS011;10608;42.600;23.398;2023-09-19T14:44:47;16.23;;;15.03;;
20896;SDS011;10608;42.600;23.398;2023-09-19T14:47:14;16.07;;;15.00;;
20896;SDS011;10608;42.600;23.398;2023-09-19T14:49:41;15.30;;;13.90;;
20896;SDS011;10608;42.600;23.398;2023-09-19T14:52:08;17.57;;;16.27;;
20896;SDS011;10608;42.600;23.398;2023-09-19T14:54:34;16.83;;;15.80;;
20896;SDS011;10608;42.600;23.398;2023-09-19T14:57:00;18.60;;;16.57;;
20896;SDS011;10608;42.600;23.398;2023-09-19T14:59:33;20.47;;;19.37;;
20896;SDS011;10608;42.600;23.398;2023-09-19T15:02:04;16.43;;;15.20;;
20896;SDS011;10608;42.600;23.398;2023-09-19T15:04:30;16.80;;;15.63;;
20896;SDS011;10608;42.600;23.398;2023-09-19T15:06:55;18.57;;;16.83;;
20896;SDS011;10608;42.600;23.398;2023-09-19T15:09:21;15.60;;;14.53;;
20896;SDS011;10608;42.600;23.398;2023-09-19T15:11:54;14.00;;;13.13;;